HomeShort term forecast

Short term forecast

Graphical weather forecast for the next 48 hours for Montreal:
Short term forecast
This weather forecast is automatically refreshed every 3 hours.

Hourly Experimental Forecast for the next 48 hours

Overall summary: Foggy starting this evening.

 Date & Hour   Temp   Feel   Baro   Hum   Speed & Bearing   Precipitation   Visibility   Cloud cover   Conditions 
 16/01/2018 - 13:00  -10.0°C  -13.3°C  1030.7 hPa  79%  5.7 km/h   0.04 mm/h  10.1km  88%  Mostly Cloudy 
 16/01/2018 - 14:00  -9.1°C  -9.1°C  1030.6 hPa  79%  4.7 km/h   0.06 mm/h  10.3km  85%  Mostly Cloudy 
 16/01/2018 - 15:00  -8.6°C  -8.6°C  1030.8 hPa  78%  4.0 km/h   0.01 mm/h  13.4km  84%  Mostly Cloudy 
 16/01/2018 - 16:00  -8.7°C  -8.7°C  1031.0 hPa  78%  3.5 km/h   0.01 mm/h  15.4km  84%  Mostly Cloudy 
 16/01/2018 - 17:00  -9.4°C  -9.4°C  1030.9 hPa  80%  4.0 km/h   0.02 mm/h  11.9km  84%  Mostly Cloudy 
 16/01/2018 - 18:00  -10.4°C  -13.3°C  1030.7 hPa  82%  5.0 km/h   0.02 mm/h  5.5km  85%  Mostly Cloudy 
 16/01/2018 - 19:00  -11.2°C  -14.6°C  1030.6 hPa  84%  5.4 km/h   0.03 mm/h  0.8km  87%  Foggy 
 16/01/2018 - 20:00  -11.6°C  -14.8°C  1030.6 hPa  87%  5.1 km/h   0.03 mm/h  0.2km  87%  Foggy 
 16/01/2018 - 21:00  -11.8°C  -11.8°C  1030.6 hPa  89%  4.4 km/h   0.02 mm/h  0.3km  88%  Foggy 
 16/01/2018 - 22:00  -12.2°C  -12.2°C  1030.6 hPa  90%  3.8 km/h   0.02 mm/h  0.5km  89%  Foggy 
 16/01/2018 - 23:00  -12.8°C  -12.8°C  1030.2 hPa  90%  3.7 km/h   0.01 mm/h  0.4km  90%  Foggy 
 17/01/2018 - 00:00  -13.6°C  -13.6°C  1029.7 hPa  89%  3.7 km/h   0.01 mm/h  0.3km  91%  Foggy 
 17/01/2018 - 01:00  -14.0°C  -14.0°C  1029.3 hPa  87%  3.9 km/h   --  0.3km  91%  Foggy 
 17/01/2018 - 02:00  -14.2°C  -14.2°C  1028.8 hPa  87%  4.4 km/h   --  0.5km  89%  Foggy 
 17/01/2018 - 03:00  -13.9°C  -17.4°C  1028.4 hPa  86%  5.1 km/h   0.01 mm/h  0.8km  85%  Foggy 
 17/01/2018 - 04:00  -13.5°C  -17.2°C  1028.0 hPa  84%  5.5 km/h   0.01 mm/h  1.1km  83%  Foggy 
 17/01/2018 - 05:00  -13.1°C  -16.7°C  1027.7 hPa  83%  5.4 km/h   0.02 mm/h  1.6km  84%  Foggy 
 17/01/2018 - 06:00  -12.8°C  -16.1°C  1027.4 hPa  82%  5.0 km/h   0.03 mm/h  2.0km  86%  Foggy 
 17/01/2018 - 07:00  -12.3°C  -12.3°C  1027.1 hPa  82%  4.8 km/h   0.05 mm/h  2.2km  88%  Foggy 
 17/01/2018 - 08:00  -11.4°C  -11.4°C  1026.9 hPa  82%  4.6 km/h   0.05 mm/h  1.8km  92%  Foggy 
 17/01/2018 - 09:00  -10.2°C  -10.2°C  1026.7 hPa  81%  4.6 km/h   0.06 mm/h  1.1km  96%  Foggy 
 17/01/2018 - 10:00  -9.0°C  -11.8°C  1026.2 hPa  79%  5.1 km/h   0.06 mm/h  0.6km  99%  Foggy 
 17/01/2018 - 11:00  -8.0°C  -11.3°C  1025.3 hPa  79%  6.2 km/h   0.05 mm/h  0.4km  100%  Foggy 
 17/01/2018 - 12:00  -6.9°C  -10.6°C  1024.0 hPa  77%  7.6 km/h   0.04 mm/h  0.4km  100%  Foggy 
 17/01/2018 - 13:00  -6.2°C  -10.3°C  1022.8 hPa  77%  8.6 km/h   0.04 mm/h  1.2km  99%  Foggy 
 17/01/2018 - 14:00  -5.9°C  -9.8°C  1021.9 hPa  76%  8.5 km/h   0.03 mm/h  3.9km  99%  Overcast 
 17/01/2018 - 15:00  -5.9°C  -9.9°C  1021.2 hPa  76%  8.6 km/h   0.02 mm/h  7.3km  98%  Overcast 
 17/01/2018 - 16:00  -6.4°C  -10.4°C  1020.5 hPa  77%  8.5 km/h   0.01 mm/h  8.9km  97%  Overcast 
 17/01/2018 - 17:00  -7.5°C  -11.9°C  1020.1 hPa  78%  9.1 km/h   0.01 mm/h  6.9km  95%  Overcast 
 17/01/2018 - 18:00  -8.9°C  -13.9°C  1019.9 hPa  79%  10.0 km/h   0.01 mm/h  3.0km  94%  Foggy 
 17/01/2018 - 19:00  -10.1°C  -15.6°C  1019.5 hPa  81%  10.7 km/h   0.01 mm/h  0.0km  92%  Foggy 
 17/01/2018 - 20:00  -11.0°C  -16.9°C  1018.8 hPa  84%  11.2 km/h   --  0.0km  92%  Foggy 
 17/01/2018 - 21:00  -11.5°C  -17.6°C  1018.1 hPa  86%  11.7 km/h   --  0.0km  92%  Foggy 
 17/01/2018 - 22:00  -11.9°C  -18.2°C  1017.2 hPa  89%  12.0 km/h   --  0.2km  92%  Foggy 
 17/01/2018 - 23:00  -12.0°C  -18.4°C  1016.1 hPa  90%  12.3 km/h   --  0.2km  91%  Foggy 
 18/01/2018 - 00:00  -11.7°C  -18.2°C  1014.8 hPa  91%  12.5 km/h   0.01 mm/h  0.2km  90%  Foggy 
 18/01/2018 - 01:00  -11.3°C  -17.7°C  1013.7 hPa  88%  12.5 km/h   0.01 mm/h  0.2km  88%  Foggy 
 18/01/2018 - 02:00  -11.1°C  -17.2°C  1012.5 hPa  85%  12.1 km/h   0.01 mm/h  0.2km  83%  Foggy 
 18/01/2018 - 03:00  -10.8°C  -16.7°C  1011.5 hPa  81%  11.6 km/h   0.01 mm/h  0.1km  78%  Foggy 
 18/01/2018 - 04:00  -10.4°C  -16.1°C  1010.7 hPa  78%  11.2 km/h   0.01 mm/h  0.1km  75%  Foggy 
 18/01/2018 - 05:00  -9.9°C  -15.4°C  1010.1 hPa  78%  11.1 km/h   0.02 mm/h  0.1km  76%  Foggy 
 18/01/2018 - 06:00  -9.2°C  -14.7°C  1009.8 hPa  80%  11.2 km/h   0.03 mm/h  0.0km  81%  Foggy 
 18/01/2018 - 07:00  -8.6°C  -14.2°C  1009.6 hPa  81%  11.9 km/h   0.05 mm/h  0.4km  86%  Foggy 
 18/01/2018 - 08:00  -7.8°C  -13.6°C  1009.5 hPa  81%  13.4 km/h   0.04 mm/h  0.9km  91%  Foggy 
 18/01/2018 - 09:00  -6.8°C  -12.9°C  1009.4 hPa  80%  15.6 km/h   0.03 mm/h  1.7km  95%  Foggy 
 18/01/2018 - 10:00  -5.7°C  -12.0°C  1009.3 hPa  78%  17.5 km/h   0.02 mm/h  4.3km  98%  Overcast 
 18/01/2018 - 11:00  -4.8°C  -11.1°C  1008.9 hPa  77%  19.2 km/h   0.02 mm/h  10.3km  97%  Overcast 
 18/01/2018 - 12:00  -3.8°C  -10.1°C  1008.3 hPa  76%  20.8 km/h   0.02 mm/h  16.1km  95%  Overcast 
Test

 

Past weather and reports

Past weatherFind in this section the past weather conditions, weather archive, graphics, reports and statistics.

Current conditions

Current weather condition for MontrealAll you need to know about the current weather conditions for Montreal. Weather data is updated every 10 minutes.

Weather forecast

Current Montreal weatherSince 2004, celinium.com website has provided accurate weather forecast for Montreal's island.